createdAt,value
2018-02-03T11:10:29.946Z,12.4
2018-02-03T11:28:41.523Z,12.5
2018-02-03T11:43:55.364Z,12.3
2018-02-03T11:58:55.597Z,13
2018-02-03T12:18:55.522Z,13.8
2018-02-03T12:33:55.479Z,15.3
2018-02-03T12:48:55.988Z,13.9
2018-02-03T13:03:55.529Z,13.7
2018-02-03T13:23:55.618Z,13.4
2018-02-03T13:38:55.673Z,11.8
2018-02-03T13:53:55.689Z,13
2018-02-03T14:13:55.866Z,12.1
2018-02-03T14:43:55.851Z,11.2
2018-02-03T15:18:56.216Z,12.2
2018-02-03T15:48:55.865Z,10.4
2018-02-03T16:23:59.996Z,9.2
2018-02-03T16:39:00.004Z,10.3
2018-02-03T17:14:00.049Z,8.9
2018-02-03T17:29:00.039Z,10.3
2018-02-03T17:44:02.937Z,9
2018-02-03T18:04:00.792Z,8.8
2018-02-03T18:19:00.085Z,11.1
2018-02-03T18:34:00.517Z,11
2018-02-03T18:49:00.081Z,9.6
2018-02-03T19:09:00.102Z,7.8
2018-02-03T19:24:00.266Z,9.6
2018-02-03T19:39:00.287Z,10
2018-02-03T20:29:01.160Z,9.3
2018-02-03T20:44:01.884Z,12.2
2018-02-03T21:04:03.291Z,13.1
2018-02-03T21:19:03.258Z,13.3
2018-02-03T21:34:04.383Z,11.9
2018-02-03T21:54:03.578Z,11.8
2018-02-03T22:09:02.812Z,11.9
2018-02-03T22:24:02.794Z,13.8
2018-02-03T22:39:02.816Z,13.6
2018-02-03T22:59:02.943Z,13
2018-02-03T23:14:02.946Z,14.6
2018-02-03T23:29:03.043Z,15.6
2018-02-03T23:49:02.809Z,11.6
